Time;durP1;ratioP1;P1;durP2;ratioP2;P2;SDS_P1;SDS_P2;PMS_P1;PMS_P2;Temp;Humidity;BMP_temperature;BMP_pressure;BME280_temperature;BME280_humidity;BME280_pressure;Samples;Min_cycle;Max_cycle;Signal;HPM_P1;HPM_P2
2022/03/02 00:00:59;;;;;;;55.45;29.85;;;6.20;99.90;;;;;;5054566;28;20049;-39
2022/03/02 00:03:26;;;;;;;45.33;29.98;;;6.10;99.90;;;;;;5066556;28;20062;-38
2022/03/02 00:05:52;;;;;;;47.05;29.33;;;6.10;99.90;;;;;;5060149;28;20045;-38
2022/03/02 00:08:19;;;;;;;50.10;29.92;;;6.10;99.90;;;;;;5073212;28;20052;-39
2022/03/02 00:10:46;;;;;;;50.13;30.20;;;6.10;99.90;;;;;;5061732;28;20091;-38
2022/03/02 00:13:13;;;;;;;51.45;29.25;;;6.10;99.90;;;;;;5054634;28;20099;-38
2022/03/02 00:15:39;;;;;;;47.03;29.85;;;6.00;99.90;;;;;;5058506;28;20052;-38
2022/03/02 00:18:07;;;;;;;42.40;28.00;;;6.10;99.90;;;;;;5056414;28;20124;-38
2022/03/02 00:20:34;;;;;;;45.15;29.08;;;6.10;99.90;;;;;;5062953;28;20079;-37
2022/03/02 00:23:01;;;;;;;44.53;28.10;;;6.00;99.90;;;;;;5063182;28;20156;-38
2022/03/02 00:25:28;;;;;;;47.47;29.92;;;6.00;99.90;;;;;;5054441;28;20539;-38
2022/03/02 00:27:55;;;;;;;47.22;28.17;;;6.00;99.90;;;;;;5058285;28;20049;-37
2022/03/02 00:30:22;;;;;;;44.83;28.52;;;6.00;99.90;;;;;;5073059;28;20052;-38
2022/03/02 00:32:49;;;;;;;43.72;29.08;;;6.00;99.90;;;;;;5069942;28;20057;-40
2022/03/02 00:35:17;;;;;;;47.53;30.58;;;6.00;99.90;;;;;;5054556;28;20089;-39
2022/03/02 00:37:44;;;;;;;46.33;28.77;;;6.00;99.90;;;;;;5067525;28;20143;-38
2022/03/02 00:40:11;;;;;;;47.20;30.20;;;6.00;99.90;;;;;;5053230;28;20128;-38
2022/03/02 00:42:37;;;;;;;47.30;30.80;;;5.90;99.90;;;;;;5067901;28;20052;-38
2022/03/02 00:45:05;;;;;;;47.97;29.65;;;5.90;99.90;;;;;;5066034;28;20457;-39
2022/03/02 00:47:32;;;;;;;47.50;29.38;;;5.90;99.90;;;;;;5066418;28;20058;-39
2022/03/02 00:49:59;;;;;;;50.70;30.23;;;5.90;99.90;;;;;;5069912;28;20102;-38
2022/03/02 00:52:27;;;;;;;46.63;29.23;;;5.90;99.90;;;;;;5071058;28;20092;-38
2022/03/02 00:54:55;;;;;;;48.28;28.95;;;5.90;99.90;;;;;;5069013;28;20045;-38
2022/03/02 00:57:21;;;;;;;46.58;29.38;;;5.80;99.90;;;;;;5069850;28;20480;-38
2022/03/02 00:59:48;;;;;;;46.83;29.45;;;5.80;99.90;;;;;;5055819;28;20045;-39
2022/03/02 01:02:15;;;;;;;49.72;30.08;;;5.80;99.90;;;;;;5065775;28;20561;-38
2022/03/02 01:04:41;;;;;;;49.42;30.02;;;5.80;99.90;;;;;;5070084;28;20156;-38
2022/03/02 01:07:08;;;;;;;49.92;29.42;;;5.80;99.90;;;;;;5055243;28;20452;-38
2022/03/02 01:09:36;;;;;;;48.10;29.52;;;5.80;99.90;;;;;;5052834;28;20380;-39
2022/03/02 01:12:04;;;;;;;46.42;29.55;;;5.80;99.90;;;;;;5052800;28;20063;-38
2022/03/02 01:14:30;;;;;;;48.88;30.65;;;5.80;99.90;;;;;;5052929;28;20053;-39
2022/03/02 01:16:57;;;;;;;51.15;30.35;;;5.80;99.90;;;;;;5065586;28;20053;-37
2022/03/02 01:19:24;;;;;;;46.55;29.67;;;5.80;99.90;;;;;;5065652;28;20060;-39
2022/03/02 01:21:50;;;;;;;48.45;30.88;;;5.80;99.90;;;;;;5059932;28;20036;-38
2022/03/02 01:24:17;;;;;;;45.90;29.85;;;5.70;99.90;;;;;;5064873;28;20139;-38
2022/03/02 01:26:46;;;;;;;50.30;31.38;;;5.70;99.90;;;;;;5055247;28;20434;-38
2022/03/02 01:29:12;;;;;;;47.13;30.05;;;5.80;99.90;;;;;;5052317;28;20053;-38
2022/03/02 01:31:39;;;;;;;50.42;30.48;;;5.80;99.90;;;;;;5060069;28;20136;-38
2022/03/02 01:34:06;;;;;;;49.90;31.48;;;5.70;99.90;;;;;;5057617;28;20257;-38
2022/03/02 01:36:33;;;;;;;49.35;30.10;;;5.70;99.90;;;;;;5065494;28;20048;-38
2022/03/02 01:38:59;;;;;;;53.10;31.65;;;5.80;99.90;;;;;;5056731;28;20461;-38
2022/03/02 01:41:26;;;;;;;49.22;30.20;;;5.80;99.90;;;;;;5059942;28;20055;-38
2022/03/02 01:43:55;;;;;;;48.45;29.55;;;5.70;99.90;;;;;;5053731;28;20102;-38
2022/03/02 01:46:22;;;;;;;45.55;28.75;;;5.80;99.90;;;;;;5062219;28;20728;-39
2022/03/02 01:48:49;;;;;;;46.08;29.40;;;5.70;99.90;;;;;;5061803;28;20056;-38
2022/03/02 01:51:16;;;;;;;47.70;29.67;;;5.80;99.90;;;;;;5055668;28;20059;-38
2022/03/02 01:53:42;;;;;;;47.22;29.88;;;5.80;99.90;;;;;;5052993;28;20053;-39
2022/03/02 01:56:09;;;;;;;51.90;30.98;;;5.80;99.90;;;;;;5061519;28;20140;-39
2022/03/02 01:58:36;;;;;;;46.28;28.55;;;5.80;99.90;;;;;;5060565;28;20514;-39
2022/03/02 02:01:04;;;;;;;47.00;29.50;;;5.80;99.90;;;;;;5056516;28;20055;-39
2022/03/02 02:03:31;;;;;;;49.05;28.73;;;5.80;99.90;;;;;;5065955;28;20053;-38
2022/03/02 02:05:58;;;;;;;49.35;30.95;;;5.80;99.90;;;;;;5068509;28;20094;-38
2022/03/02 02:08:25;;;;;;;49.28;30.73;;;5.80;99.90;;;;;;5070808;28;20074;-38
2022/03/02 02:10:52;;;;;;;53.28;32.00;;;5.70;99.90;;;;;;5061107;28;20131;-37
2022/03/02 02:13:18;;;;;;;49.78;30.90;;;5.70;99.90;;;;;;5055762;28;20049;-37
2022/03/02 02:15:45;;;;;;;47.28;30.50;;;5.70;99.90;;;;;;5057590;28;20060;-37
2022/03/02 02:18:13;;;;;;;49.50;30.88;;;5.70;99.90;;;;;;5063622;28;20049;-38
2022/03/02 02:20:41;;;;;;;44.85;28.38;;;5.70;99.90;;;;;;5065785;28;20488;-38
2022/03/02 02:23:08;;;;;;;51.92;30.77;;;5.70;99.90;;;;;;5071449;28;20060;-38
2022/03/02 02:25:35;;;;;;;52.20;31.67;;;5.70;99.90;;;;;;5065979;28;20066;-38
2022/03/02 02:28:02;;;;;;;47.05;31.15;;;5.60;99.90;;;;;;5066328;28;20203;-38
2022/03/02 02:30:28;;;;;;;52.22;31.85;;;5.60;99.90;;;;;;5064377;28;20432;-38
2022/03/02 02:32:55;;;;;;;51.58;30.40;;;5.50;99.90;;;;;;5068990;28;20059;-38
2022/03/02 02:35:22;;;;;;;52.83;33.25;;;5.50;99.90;;;;;;5061633;28;20125;-37
2022/03/02 02:37:50;;;;;;;50.97;31.52;;;5.50;99.90;;;;;;5059102;28;20088;-38
2022/03/02 02:40:18;;;;;;;48.15;30.50;;;5.40;99.90;;;;;;5054298;28;20048;-37
2022/03/02 02:42:45;;;;;;;50.30;30.80;;;5.40;99.90;;;;;;5066308;28;20497;-39
2022/03/02 02:45:14;;;;;;;50.35;31.65;;;5.40;99.90;;;;;;5059130;28;20111;-38
2022/03/02 02:47:40;;;;;;;55.33;31.63;;;5.40;99.90;;;;;;5056039;28;20092;-37
2022/03/02 02:50:18;;;;;;;55.78;32.83;;;5.40;99.90;;;;;;5055041;28;20086;-38
2022/03/02 02:52:45;;;;;;;50.58;31.10;;;5.30;99.90;;;;;;5051896;28;20131;-38
2022/03/02 02:55:14;;;;;;;55.38;32.65;;;5.30;99.90;;;;;;5055839;28;20055;-38
2022/03/02 02:57:41;;;;;;;56.95;32.20;;;5.30;99.90;;;;;;5067195;28;20056;-38
2022/03/02 03:00:10;;;;;;;56.83;33.15;;;5.30;99.90;;;;;;5054432;28;20087;-38
2022/03/02 03:02:37;;;;;;;53.47;31.95;;;5.30;99.90;;;;;;5064970;28;20551;-38
2022/03/02 03:05:04;;;;;;;54.60;32.00;;;5.30;99.90;;;;;;5053388;28;20067;-38
2022/03/02 03:07:31;;;;;;;55.45;34.20;;;5.30;99.90;;;;;;5052273;28;20045;-38
2022/03/02 03:09:57;;;;;;;57.42;33.10;;;5.30;99.90;;;;;;5051168;28;20136;-38
2022/03/02 03:12:25;;;;;;;56.83;34.42;;;5.30;99.90;;;;;;5050913;28;20075;-38
2022/03/02 03:14:52;;;;;;;53.25;32.40;;;5.30;99.90;;;;;;5050896;28;20048;-38
2022/03/02 03:17:19;;;;;;;58.33;33.33;;;5.20;99.90;;;;;;5052016;28;20128;-38
2022/03/02 03:19:45;;;;;;;57.80;34.95;;;5.30;99.90;;;;;;5050941;28;20472;-37
2022/03/02 03:22:12;;;;;;;56.47;33.90;;;5.20;99.90;;;;;;5052764;28;20049;-38
2022/03/02 03:24:39;;;;;;;52.47;31.85;;;5.20;99.90;;;;;;5055204;28;20140;-38
2022/03/02 03:27:06;;;;;;;54.50;33.15;;;5.20;99.90;;;;;;5063090;28;20040;-38
2022/03/02 03:29:34;;;;;;;59.08;34.95;;;5.20;99.90;;;;;;5074103;28;20131;-39
2022/03/02 03:32:00;;;;;;;53.40;32.40;;;5.20;99.90;;;;;;5059773;28;20069;-38
2022/03/02 03:34:27;;;;;;;56.05;33.28;;;5.20;99.90;;;;;;5062369;28;20037;-39
2022/03/02 03:36:54;;;;;;;53.55;31.95;;;5.20;99.90;;;;;;5054067;28;20095;-38
2022/03/02 03:39:21;;;;;;;59.03;33.35;;;5.10;99.90;;;;;;5054417;28;20048;-38
2022/03/02 03:41:48;;;;;;;67.43;35.38;;;5.10;99.90;;;;;;5057930;28;20057;-38
2022/03/02 03:44:14;;;;;;;59.40;34.50;;;5.10;99.90;;;;;;5054225;28;20048;-37
2022/03/02 03:46:42;;;;;;;58.60;35.05;;;5.10;99.90;;;;;;5085282;28;20099;-40
2022/03/02 03:49:10;;;;;;;59.45;35.20;;;5.10;99.90;;;;;;5072895;28;20055;-38
2022/03/02 03:51:36;;;;;;;56.60;33.97;;;5.00;99.90;;;;;;5067863;28;20060;-38
2022/03/02 03:54:03;;;;;;;52.88;32.92;;;5.00;99.90;;;;;;5063333;28;20051;-38
2022/03/02 03:56:31;;;;;;;60.08;34.10;;;5.00;99.90;;;;;;5054609;28;20147;-38
2022/03/02 03:58:59;;;;;;;59.75;35.67;;;4.90;99.90;;;;;;5063062;28;20051;-38
2022/03/02 04:01:26;;;;;;;57.38;34.28;;;4.90;99.90;;;;;;5058460;28;20060;-37
2022/03/02 04:03:54;;;;;;;59.05;36.10;;;4.90;99.90;;;;;;5058720;28;20056;-37
2022/03/02 04:06:21;;;;;;;66.22;36.22;;;4.90;99.90;;;;;;5053843;28;20057;-38
2022/03/02 04:08:47;;;;;;;61.67;36.83;;;4.90;99.90;;;;;;5057094;28;20045;-38
2022/03/02 04:11:14;;;;;;;66.43;37.05;;;4.90;99.90;;;;;;5072521;28;20056;-38
2022/03/02 04:13:41;;;;;;;66.07;38.83;;;4.90;99.90;;;;;;5071610;28;20547;-38
2022/03/02 04:16:08;;;;;;;63.40;35.85;;;4.90;99.90;;;;;;5053585;28;20207;-38
2022/03/02 04:18:34;;;;;;;63.35;37.33;;;4.80;99.90;;;;;;5069708;28;20050;-38
2022/03/02 04:21:03;;;;;;;65.95;38.00;;;4.80;99.90;;;;;;5057209;28;20081;-38
2022/03/02 04:23:29;;;;;;;66.28;39.10;;;4.80;99.90;;;;;;5064442;28;20123;-39
2022/03/02 04:25:56;;;;;;;63.25;38.10;;;4.80;99.90;;;;;;5068844;28;20577;-38
2022/03/02 04:28:23;;;;;;;66.22;39.65;;;4.70;99.90;;;;;;5054094;28;20057;-38
2022/03/02 04:30:49;;;;;;;64.88;37.67;;;4.70;99.90;;;;;;5061593;28;20575;-38
2022/03/02 04:33:16;;;;;;;63.20;37.20;;;4.70;99.90;;;;;;5057440;28;20059;-38
2022/03/02 04:35:43;;;;;;;57.03;33.50;;;4.80;99.90;;;;;;5066418;28;20579;-39
2022/03/02 04:38:11;;;;;;;65.53;38.55;;;4.70;99.90;;;;;;5069830;28;20059;-38
2022/03/02 04:40:38;;;;;;;62.30;37.50;;;4.60;99.90;;;;;;5051535;28;20059;-38
2022/03/02 04:43:05;;;;;;;59.58;36.28;;;4.60;99.90;;;;;;5053002;28;20227;-38
2022/03/02 04:45:31;;;;;;;60.88;34.80;;;4.60;99.90;;;;;;5055268;28;20037;-37
2022/03/02 04:47:58;;;;;;;65.10;37.50;;;4.60;99.90;;;;;;5069642;28;20056;-38
2022/03/02 04:50:25;;;;;;;64.78;38.13;;;4.50;99.90;;;;;;5068488;28;20059;-38
2022/03/02 04:52:52;;;;;;;67.75;39.05;;;4.60;99.90;;;;;;5059336;28;20088;-38
2022/03/02 04:55:21;;;;;;;64.03;37.83;;;4.50;99.90;;;;;;5060492;28;20047;-37
2022/03/02 04:57:49;;;;;;;58.42;34.83;;;4.50;99.90;;;;;;5067831;28;20391;-37
2022/03/02 05:00:17;;;;;;;65.35;38.70;;;4.40;99.90;;;;;;5070694;28;20056;-38
2022/03/02 05:02:43;;;;;;;54.80;32.35;;;4.40;99.90;;;;;;5053282;28;20080;-37
2022/03/02 05:05:11;;;;;;;54.15;32.53;;;4.40;99.90;;;;;;5053220;28;20504;-37
2022/03/02 05:07:38;;;;;;;62.13;37.08;;;4.40;99.90;;;;;;5064689;28;20188;-37
2022/03/02 05:10:06;;;;;;;68.55;37.55;;;4.30;99.90;;;;;;5056344;28;20504;-38
2022/03/02 05:12:34;;;;;;;62.92;36.72;;;4.30;99.90;;;;;;5057231;28;20500;-37
2022/03/02 05:15:01;;;;;;;69.03;39.58;;;4.20;99.90;;;;;;5072112;28;20052;-38
2022/03/02 05:17:27;;;;;;;64.00;37.42;;;4.20;99.90;;;;;;5069101;28;20049;-37
2022/03/02 05:19:54;;;;;;;59.08;34.88;;;4.20;99.90;;;;;;5072482;28;20114;-37
2022/03/02 05:22:21;;;;;;;59.33;35.80;;;4.10;99.90;;;;;;5072363;28;20056;-37
2022/03/02 05:24:48;;;;;;;55.30;33.92;;;4.10;99.90;;;;;;5072436;28;20052;-37
2022/03/02 05:27:14;;;;;;;63.95;37.00;;;4.10;99.90;;;;;;5072401;28;20055;-37
2022/03/02 05:29:42;;;;;;;64.25;37.95;;;4.10;99.90;;;;;;5072381;28;20076;-37
2022/03/02 05:32:09;;;;;;;63.50;38.63;;;4.10;99.90;;;;;;5060891;28;20040;-37
2022/03/02 05:34:36;;;;;;;60.60;36.13;;;4.10;99.90;;;;;;5064977;28;20131;-37
2022/03/02 05:37:03;;;;;;;62.95;37.38;;;4.00;99.90;;;;;;5067566;28;20053;-38
2022/03/02 05:39:30;;;;;;;59.90;36.53;;;4.00;99.90;;;;;;5053083;28;20052;-37
2022/03/02 05:41:57;;;;;;;68.10;39.25;;;4.00;99.90;;;;;;5065617;28;20382;-38
2022/03/02 05:44:24;;;;;;;58.08;34.63;;;4.00;99.90;;;;;;5052929;28;20109;-38
2022/03/02 05:46:52;;;;;;;70.50;40.15;;;4.00;99.90;;;;;;5067651;28;20044;-37
2022/03/02 05:49:18;;;;;;;67.55;37.92;;;3.90;99.90;;;;;;5069938;28;20080;-37
2022/03/02 05:51:45;;;;;;;64.97;37.63;;;3.90;99.90;;;;;;5058172;28;20187;-38
2022/03/02 05:54:12;;;;;;;66.35;37.53;;;3.90;99.90;;;;;;5066413;28;20054;-38
2022/03/02 05:56:39;;;;;;;73.07;40.72;;;3.80;99.90;;;;;;5076565;28;20063;-36
2022/03/02 05:59:06;;;;;;;71.82;40.67;;;3.80;99.90;;;;;;5054116;28;20136;-37
2022/03/02 06:01:33;;;;;;;67.43;39.25;;;3.80;99.90;;;;;;5077255;28;20077;-38
2022/03/02 06:04:01;;;;;;;66.78;39.63;;;3.80;99.90;;;;;;5069006;28;20068;-37
2022/03/02 06:06:29;;;;;;;68.28;39.85;;;3.70;99.90;;;;;;5068405;28;20055;-37
2022/03/02 06:08:56;;;;;;;63.00;37.35;;;3.70;99.90;;;;;;5075027;28;20084;-38
2022/03/02 06:11:23;;;;;;;66.50;38.97;;;3.70;99.90;;;;;;5071737;28;20043;-37
2022/03/02 06:13:51;;;;;;;65.55;39.15;;;3.70;99.90;;;;;;5060094;28;20049;-38
2022/03/02 06:16:18;;;;;;;60.70;37.22;;;3.70;99.90;;;;;;5051952;28;20544;-38
2022/03/02 06:18:45;;;;;;;67.68;38.80;;;3.70;99.90;;;;;;5057280;28;20040;-38
2022/03/02 06:21:15;;;;;;;69.88;40.97;;;3.60;99.90;;;;;;5055269;28;20058;-38
2022/03/02 06:23:43;;;;;;;71.43;40.00;;;3.60;99.90;;;;;;5064836;28;20110;-38
2022/03/02 06:26:10;;;;;;;70.28;39.35;;;3.50;99.90;;;;;;5059986;28;20141;-37
2022/03/02 06:28:36;;;;;;;62.42;37.33;;;3.50;99.90;;;;;;5062960;28;20049;-37
2022/03/02 06:31:03;;;;;;;67.63;39.80;;;3.40;99.90;;;;;;5058117;28;20067;-37
2022/03/02 06:33:30;;;;;;;68.78;39.35;;;3.50;99.90;;;;;;5067695;28;20530;-37
2022/03/02 06:35:56;;;;;;;68.65;38.97;;;3.40;99.90;;;;;;5054518;28;20052;-37
2022/03/02 06:38:25;;;;;;;60.45;34.60;;;3.40;99.90;;;;;;5060687;28;20046;-38
2022/03/02 06:40:59;;;;;;;61.33;35.65;;;3.30;99.90;;;;;;5055176;28;20058;-37
2022/03/02 06:43:25;;;;;;;66.53;37.78;;;3.30;99.90;;;;;;5054265;28;20393;-37
2022/03/02 06:45:55;;;;;;;78.25;41.53;;;3.20;99.90;;;;;;5063424;28;20041;-37
2022/03/02 06:48:25;;;;;;;67.10;38.50;;;3.20;99.90;;;;;;5066300;28;20131;-37
2022/03/02 06:50:53;;;;;;;64.75;37.28;;;3.20;99.90;;;;;;5057068;28;20143;-37
2022/03/02 06:53:23;;;;;;;72.18;39.00;;;3.20;99.90;;;;;;5049603;28;20051;-37
2022/03/02 06:55:51;;;;;;;66.55;37.08;;;3.10;99.90;;;;;;5057332;28;20052;-37
2022/03/02 06:58:18;;;;;;;71.82;40.65;;;3.10;99.90;;;;;;5049242;28;20697;-38
2022/03/02 07:00:48;;;;;;;74.70;40.92;;;3.10;99.90;;;;;;5051663;28;20051;-37
2022/03/02 07:03:17;;;;;;;59.20;32.20;;;3.00;99.90;;;;;;5056894;28;20333;-37
2022/03/02 07:05:44;;;;;;;70.38;39.63;;;3.00;99.90;;;;;;5066097;28;20127;-36
2022/03/02 07:08:11;;;;;;;71.28;39.25;;;3.00;99.90;;;;;;5071032;28;20045;-37
2022/03/02 07:10:38;;;;;;;72.82;41.30;;;3.10;99.90;;;;;;5057065;28;20080;-38
2022/03/02 07:13:06;;;;;;;71.00;39.78;;;3.00;99.90;;;;;;5081218;28;20132;-38
2022/03/02 07:15:34;;;;;;;70.72;39.97;;;3.00;99.90;;;;;;5054123;28;20059;-38
2022/03/02 07:18:02;;;;;;;67.93;37.33;;;3.00;99.90;;;;;;5069308;28;20095;-38
2022/03/02 07:20:29;;;;;;;67.40;38.13;;;3.00;99.90;;;;;;5053401;28;20140;-38
2022/03/02 07:22:57;;;;;;;67.97;40.38;;;2.90;99.90;;;;;;5062543;28;20131;-38
2022/03/02 07:25:26;;;;;;;72.97;39.22;;;2.90;99.90;;;;;;5056698;28;20403;-38
2022/03/02 07:27:53;;;;;;;71.32;40.22;;;2.90;99.90;;;;;;5055472;28;20542;-37
2022/03/02 07:30:21;;;;;;;65.55;39.90;;;2.90;99.90;;;;;;5055366;28;20135;-37
2022/03/02 07:32:48;;;;;;;63.88;38.78;;;2.90;99.90;;;;;;5070992;28;20049;-37
2022/03/02 07:35:16;;;;;;;70.68;42.17;;;2.90;99.90;;;;;;5071555;28;20139;-36
2022/03/02 07:37:43;;;;;;;70.88;40.58;;;2.90;99.90;;;;;;5072667;28;20056;-37
2022/03/02 07:40:11;;;;;;;76.18;42.40;;;2.90;99.90;;;;;;5054173;28;20041;-36
2022/03/02 07:42:38;;;;;;;75.00;41.45;;;2.90;99.90;;;;;;5053046;28;20084;-37
2022/03/02 07:45:06;;;;;;;68.25;41.05;;;3.00;99.90;;;;;;5064486;28;20341;-37
2022/03/02 07:47:34;;;;;;;75.82;41.50;;;3.10;99.90;;;;;;5058601;28;20493;-37
2022/03/02 07:50:00;;;;;;;71.25;39.42;;;3.10;99.90;;;;;;5062723;28;20041;-38
2022/03/02 07:52:29;;;;;;;63.97;37.47;;;3.20;99.90;;;;;;5074325;28;20084;-37
2022/03/02 07:54:57;;;;;;;70.68;40.03;;;3.30;99.90;;;;;;5061439;28;20064;-37
2022/03/02 07:57:24;;;;;;;69.22;40.80;;;3.40;99.90;;;;;;5071542;28;20093;-37
2022/03/02 07:59:51;;;;;;;69.68;41.28;;;3.50;99.90;;;;;;5062633;28;20413;-36
2022/03/02 08:02:18;;;;;;;66.63;38.92;;;3.60;99.90;;;;;;5060568;28;20048;-37
2022/03/02 08:04:46;;;;;;;65.68;37.58;;;3.70;99.90;;;;;;5070760;28;20049;-36
2022/03/02 08:07:13;;;;;;;66.85;37.55;;;3.80;99.90;;;;;;5059514;28;20049;-36
2022/03/02 08:09:39;;;;;;;62.58;36.63;;;3.90;99.90;;;;;;5059850;28;20135;-37
2022/03/02 08:12:07;;;;;;;60.92;35.75;;;4.10;99.90;;;;;;5067656;28;20126;-37
2022/03/02 08:14:34;;;;;;;69.50;37.47;;;4.20;99.90;;;;;;5057088;28;20546;-37
2022/03/02 08:17:02;;;;;;;61.85;35.75;;;4.30;99.90;;;;;;5061111;28;20056;-38
2022/03/02 08:19:30;;;;;;;59.08;35.88;;;4.40;99.90;;;;;;5068413;28;20052;-38
2022/03/02 08:22:00;;;;;;;60.88;35.30;;;4.50;99.90;;;;;;5070217;28;20068;-38
2022/03/02 08:24:27;;;;;;;59.35;35.25;;;4.60;99.90;;;;;;5069484;28;20148;-38
2022/03/02 08:26:57;;;;;;;55.97;34.50;;;4.70;99.90;;;;;;5066488;28;20128;-38
2022/03/02 08:29:25;;;;;;;60.20;34.10;;;4.80;99.90;;;;;;5059065;28;20040;-37
2022/03/02 08:31:51;;;;;;;58.63;33.85;;;5.00;99.90;;;;;;5063759;28;20435;-37
2022/03/02 08:34:18;;;;;;;55.63;33.90;;;5.10;99.90;;;;;;5052211;28;20059;-37
2022/03/02 08:36:45;;;;;;;57.20;33.25;;;5.20;99.90;;;;;;5052308;28;20132;-38
2022/03/02 08:39:14;;;;;;;58.85;33.25;;;5.30;99.90;;;;;;5054363;28;20047;-37
2022/03/02 08:41:40;;;;;;;55.90;32.55;;;5.50;99.90;;;;;;5053769;28;20055;-38
2022/03/02 08:44:07;;;;;;;54.10;33.10;;;5.60;99.90;;;;;;5052536;28;20093;-38
2022/03/02 08:46:34;;;;;;;51.58;31.05;;;5.70;99.90;;;;;;5055585;28;20516;-37
2022/03/02 08:49:01;;;;;;;51.65;30.42;;;5.70;99.90;;;;;;5069536;28;20469;-38
2022/03/02 08:51:28;;;;;;;54.65;31.50;;;5.80;99.90;;;;;;5056747;28;20067;-38
2022/03/02 08:53:56;;;;;;;51.75;30.80;;;6.00;99.90;;;;;;5052653;28;20056;-37
2022/03/02 08:56:24;;;;;;;48.05;29.58;;;6.10;99.90;;;;;;5055045;28;20150;-38
2022/03/02 08:58:51;;;;;;;49.17;28.60;;;6.20;99.90;;;;;;5071873;28;20060;-38
2022/03/02 09:01:18;;;;;;;50.80;28.85;;;6.30;99.90;;;;;;5063306;28;20057;-38
2022/03/02 09:03:46;;;;;;;44.97;27.48;;;6.40;99.90;;;;;;5052602;28;20052;-38
2022/03/02 09:06:12;;;;;;;46.88;28.50;;;6.50;99.90;;;;;;5058735;28;20053;-38
2022/03/02 09:08:39;;;;;;;46.63;27.95;;;6.60;99.90;;;;;;5055046;28;20131;-38
2022/03/02 09:11:06;;;;;;;43.17;27.15;;;6.80;99.90;;;;;;5052943;28;20386;-38
2022/03/02 09:13:35;;;;;;;50.17;28.73;;;6.70;99.90;;;;;;5066845;28;20400;-39
2022/03/02 09:16:02;;;;;;;48.80;27.95;;;6.70;99.90;;;;;;5081021;28;20059;-37
2022/03/02 09:18:28;;;;;;;46.33;26.58;;;6.90;99.90;;;;;;5051708;28;20049;-38
2022/03/02 09:20:57;;;;;;;45.13;26.48;;;6.90;99.90;;;;;;5052156;28;20045;-39
2022/03/02 09:23:24;;;;;;;44.35;26.77;;;7.10;99.90;;;;;;5060822;28;20098;-39
2022/03/02 09:25:51;;;;;;;41.88;25.92;;;7.20;99.90;;;;;;5069685;28;20055;-39
2022/03/02 09:28:18;;;;;;;43.63;26.33;;;7.30;99.30;;;;;;5056213;28;20051;-38
2022/03/02 09:30:46;;;;;;;42.00;24.98;;;7.40;99.20;;;;;;5056971;28;20052;-38
2022/03/02 09:33:15;;;;;;;40.60;24.92;;;7.50;98.00;;;;;;5066985;28;20048;-39
2022/03/02 09:35:42;;;;;;;45.20;25.90;;;7.60;97.90;;;;;;5069437;28;20047;-38
2022/03/02 09:38:08;;;;;;;44.30;24.67;;;7.70;97.40;;;;;;5062609;28;20056;-38
2022/03/02 09:40:35;;;;;;;44.00;26.10;;;7.70;96.20;;;;;;5051445;28;20075;-37
2022/03/02 09:43:05;;;;;;;39.67;25.70;;;7.70;96.60;;;;;;5064999;28;20052;-38
2022/03/02 09:45:32;;;;;;;42.75;24.55;;;7.90;96.10;;;;;;5064977;28;20041;-40
2022/03/02 09:48:03;;;;;;;40.95;24.90;;;7.90;95.40;;;;;;5051244;28;20088;-39
2022/03/02 09:50:31;;;;;;;40.15;23.88;;;8.00;95.60;;;;;;5051076;28;20053;-39
2022/03/02 09:53:00;;;;;;;42.65;24.63;;;8.20;95.50;;;;;;5051720;28;20060;-39
2022/03/02 09:55:26;;;;;;;41.38;25.50;;;8.30;94.90;;;;;;5051772;28;20087;-38
2022/03/02 09:57:55;;;;;;;43.67;25.98;;;8.30;93.70;;;;;;5069976;28;20476;-38
2022/03/02 10:00:23;;;;;;;41.97;23.98;;;8.30;93.40;;;;;;5069932;28;20444;-37
2022/03/02 10:02:51;;;;;;;38.63;23.75;;;8.50;93.50;;;;;;5052672;28;20496;-37
2022/03/02 10:05:21;;;;;;;37.22;22.95;;;8.70;93.10;;;;;;5060696;28;20045;-38
2022/03/02 10:07:55;;;;;;;39.80;25.08;;;8.70;92.90;;;;;;5070991;28;20052;-38
2022/03/02 10:10:23;;;;;;;39.25;23.98;;;8.80;91.70;;;;;;5067952;28;20550;-37
2022/03/02 10:12:50;;;;;;;36.90;23.10;;;8.80;91.60;;;;;;5069081;28;20131;-38
2022/03/02 10:15:16;;;;;;;37.33;22.08;;;8.80;90.90;;;;;;5070736;28;20135;-38
2022/03/02 10:17:44;;;;;;;36.67;22.17;;;8.90;90.70;;;;;;5070679;28;20127;-37
2022/03/02 10:20:12;;;;;;;35.25;21.38;;;9.00;90.30;;;;;;5061809;28;20375;-38
2022/03/02 10:23:14;;;;;;;33.35;21.65;;;9.10;89.00;;;;;;5069173;28;20086;-37
2022/03/02 10:25:46;;;;;;;;;;;9.20;85.90;;;;;;5067671;28;20130;-37
2022/03/02 10:28:15;;;;;;;36.47;21.55;;;9.30;86.40;;;;;;5055382;28;21914;-38
2022/03/02 10:30:42;;;;;;;31.90;20.55;;;9.40;90.50;;;;;;5057043;28;20084;-39
2022/03/02 10:33:19;;;;;;;33.92;21.17;;;9.60;87.10;;;;;;5050461;28;20484;-38
2022/03/02 10:35:51;;;;;;;33.88;21.48;;;9.60;79.80;;;;;;5050304;28;20131;-39
2022/03/02 10:38:24;;;;;;;33.80;21.23;;;9.60;82.50;;;;;;5051189;28;20139;-39
2022/03/02 10:40:51;;;;;;;31.23;20.77;;;9.60;81.10;;;;;;5053182;28;20532;-42
2022/03/02 10:43:19;;;;;;;34.83;21.77;;;9.70;82.60;;;;;;5057552;28;20067;-38
2022/03/02 10:45:51;;;;;;;33.08;20.70;;;9.80;80.70;;;;;;5061379;28;20048;-38
2022/03/02 10:48:21;;;;;;;;;;;9.90;80.70;;;;;;5069991;28;20049;-38
2022/03/02 10:50:52;;;;;;;32.13;20.30;;;9.90;76.60;;;;;;5058907;28;19974;-39
2022/03/02 10:53:21;;;;;;;35.83;21.38;;;10.10;81.30;;;;;;5066865;28;20481;-39
2022/03/02 10:55:49;;;;;;;36.33;20.38;;;10.20;80.10;;;;;;5053449;28;20080;-38
2022/03/02 10:58:16;;;;;;;32.78;20.50;;;10.30;78.00;;;;;;5070479;28;20135;-39
2022/03/02 11:00:44;;;;;;;34.45;20.38;;;10.30;78.20;;;;;;5057534;28;20507;-39
2022/03/02 11:03:10;;;;;;;29.85;20.58;;;10.40;77.40;;;;;;5060152;28;20041;-39
2022/03/02 11:05:37;;;;;;;32.65;21.25;;;10.40;77.40;;;;;;5056222;28;20059;-39
2022/03/02 11:08:04;;;;;;;31.33;20.40;;;10.60;78.30;;;;;;5066730;28;20135;-39
2022/03/02 11:10:33;;;;;;;33.55;20.55;;;10.70;77.10;;;;;;5065581;28;20502;-39
2022/03/02 11:13:01;;;;;;;33.33;20.17;;;10.80;77.70;;;;;;5053329;28;20068;-36
2022/03/02 11:15:27;;;;;;;29.70;19.92;;;10.80;76.80;;;;;;5067023;28;20053;-38
2022/03/02 11:17:55;;;;;;;32.33;19.73;;;11.00;77.20;;;;;;5050031;28;20059;-39
2022/03/02 11:20:22;;;;;;;32.95;19.80;;;11.10;75.70;;;;;;5049801;28;20067;-39
2022/03/02 11:22:55;;;;;;;31.58;18.52;;;11.30;75.00;;;;;;5049488;28;20057;-38
2022/03/02 11:25:45;;;;;;;28.95;19.65;;;11.30;72.80;;;;;;5084915;28;20052;-38
2022/03/02 11:28:14;;;;;;;30.10;20.08;;;11.20;71.90;;;;;;5070114;28;20056;-39
2022/03/02 11:30:45;;;;;;;32.85;21.20;;;11.30;73.30;;;;;;5067280;28;20544;-38
2022/03/02 11:33:12;;;;;;;32.22;20.90;;;11.30;73.10;;;;;;5049824;28;20053;-38
2022/03/02 11:35:39;;;;;;;30.15;20.00;;;11.40;71.60;;;;;;5051702;28;20544;-39
2022/03/02 11:38:06;;;;;;;32.33;21.65;;;11.30;71.40;;;;;;5050052;28;20136;-38
2022/03/02 11:40:44;;;;;;;30.73;20.25;;;11.40;71.60;;;;;;5054209;28;20564;-38
2022/03/02 11:43:17;;;;;;;29.08;19.90;;;11.40;69.70;;;;;;5067623;28;20057;-38
2022/03/02 11:45:43;;;;;;;31.08;21.50;;;11.50;69.50;;;;;;5072300;28;20464;-42
2022/03/02 11:48:11;;;;;;;33.63;21.55;;;11.50;70.70;;;;;;5073745;28;20045;-38
2022/03/02 11:50:38;;;;;;;31.90;21.38;;;11.60;70.50;;;;;;5072073;28;20051;-39
2022/03/02 11:53:08;;;;;;;33.97;21.15;;;11.70;71.20;;;;;;5073391;28;20052;-39
2022/03/02 11:55:35;;;;;;;31.83;20.38;;;11.60;68.50;;;;;;5072823;28;20053;-40
2022/03/02 11:58:01;;;;;;;34.95;20.27;;;11.50;70.00;;;;;;5062041;28;20070;-40
2022/03/02 12:00:30;;;;;;;31.27;21.10;;;11.60;70.10;;;;;;5064717;28;20055;-39
2022/03/02 12:02:58;;;;;;;32.90;22.17;;;11.70;69.50;;;;;;5054251;28;20512;-39
2022/03/02 12:05:27;;;;;;;35.35;22.30;;;11.70;68.60;;;;;;5053076;28;20485;-39
2022/03/02 12:08:01;;;;;;;32.63;22.13;;;11.60;68.20;;;;;;5065913;28;20401;-39
2022/03/02 12:10:29;;;;;;;31.65;20.83;;;11.50;69.10;;;;;;5054784;28;20071;-39
2022/03/02 12:12:56;;;;;;;32.08;22.58;;;11.50;69.70;;;;;;5059553;28;20052;-39
2022/03/02 12:15:24;;;;;;;31.02;21.98;;;11.60;69.50;;;;;;5052854;28;20064;-40
2022/03/02 12:17:53;;;;;;;36.97;21.95;;;11.50;68.40;;;;;;5056583;28;20045;-39
2022/03/02 12:20:21;;;;;;;33.72;21.48;;;11.40;68.80;;;;;;5060345;28;20084;-39
2022/03/02 12:22:49;;;;;;;34.00;21.88;;;11.50;69.80;;;;;;5067103;28;20045;-39
2022/03/02 12:25:17;;;;;;;33.78;21.95;;;11.60;68.60;;;;;;5055297;28;20060;-39
2022/03/02 12:27:56;;;;;;;31.73;20.83;;;11.60;67.40;;;;;;5060667;28;20053;-38
2022/03/02 12:30:23;;;;;;;32.58;21.33;;;11.50;67.20;;;;;;5072407;28;20456;-39
2022/03/02 12:32:50;;;;;;;33.67;22.05;;;11.60;67.80;;;;;;5072325;28;20135;-39
2022/03/02 12:35:22;;;;;;;31.67;22.50;;;11.60;67.40;;;;;;5065042;28;20114;-39
2022/03/02 12:37:49;;;;;;;33.67;21.52;;;11.70;67.90;;;;;;5065153;28;20551;-39